createdAt,value
2017-12-01T00:02:20.561Z,9.20
2017-12-01T00:04:48.396Z,9.40
2017-12-01T00:07:15.854Z,9.68
2017-12-01T00:09:44.085Z,9.43
2017-12-01T00:12:11.533Z,10.07
2017-12-01T00:14:39.013Z,10.00
2017-12-01T00:17:06.455Z,9.10
2017-12-01T00:19:33.931Z,8.63
2017-12-01T00:22:01.423Z,9.23
2017-12-01T00:24:29.653Z,9.18
2017-12-01T00:26:57.123Z,9.47
2017-12-01T00:29:26.088Z,9.43
2017-12-01T00:31:53.749Z,9.70
2017-12-01T00:34:21.193Z,8.90
2017-12-01T00:36:49.608Z,9.50
2017-12-01T00:39:17.076Z,7.80
2017-12-01T00:41:44.554Z,9.10
2017-12-01T00:44:12.786Z,9.73
2017-12-01T00:46:40.479Z,9.30
2017-12-01T00:49:09.376Z,8.53
2017-12-01T00:51:36.825Z,8.77
2017-12-01T00:54:04.301Z,7.73
2017-12-01T00:56:31.768Z,8.30
2017-12-01T00:58:59.254Z,8.80
2017-12-01T01:01:26.713Z,7.77
2017-12-01T01:03:54.169Z,9.75
2017-12-01T01:06:21.650Z,9.25
2017-12-01T01:08:49.108Z,9.15
2017-12-01T01:11:17.090Z,8.95
2017-12-01T01:13:44.556Z,10.50
2017-12-01T01:16:12.030Z,8.37
2017-12-01T01:18:39.484Z,9.65
2017-12-01T01:21:07.713Z,9.87
2017-12-01T01:23:39.025Z,9.35
2017-12-01T01:26:06.672Z,11.70
2017-12-01T01:28:34.908Z,9.33
2017-12-01T01:31:02.384Z,8.97
2017-12-01T01:33:30.149Z,9.50
2017-12-01T01:35:57.629Z,9.80
2017-12-01T01:38:25.440Z,8.90
2017-12-01T01:40:53.006Z,9.87
2017-12-01T01:43:20.511Z,9.70
2017-12-01T01:45:47.966Z,10.13
2017-12-01T01:48:15.439Z,9.38
2017-12-01T01:50:43.145Z,9.80
2017-12-01T01:53:10.590Z,9.50
2017-12-01T01:55:38.061Z,9.20
2017-12-01T01:58:06.133Z,10.00
2017-12-01T02:00:33.920Z,9.45
2017-12-01T02:03:01.413Z,11.03
2017-12-01T02:05:28.844Z,10.47
2017-12-01T02:07:56.296Z,10.17
2017-12-01T02:10:29.052Z,11.10
2017-12-01T02:12:58.940Z,10.67
2017-12-01T02:15:26.404Z,9.33
2017-12-01T02:17:53.860Z,10.87
2017-12-01T02:20:21.317Z,8.30
2017-12-01T02:22:48.808Z,10.40
2017-12-01T02:25:16.268Z,11.10
2017-12-01T02:27:44.706Z,10.93
2017-12-01T02:30:12.697Z,10.18
2017-12-01T02:32:40.152Z,9.40
2017-12-01T02:35:07.732Z,10.03
2017-12-01T02:37:35.252Z,9.52
2017-12-01T02:40:02.708Z,10.47
2017-12-01T02:42:30.212Z,10.97
2017-12-01T02:44:57.663Z,11.67
2017-12-01T02:47:26.056Z,9.75
2017-12-01T02:49:53.512Z,11.60
2017-12-01T02:52:20.964Z,9.50
2017-12-01T02:54:49.973Z,11.73
2017-12-01T02:57:17.468Z,9.73
2017-12-01T02:59:45.628Z,10.50
2017-12-01T03:02:13.121Z,8.37
2017-12-01T03:04:40.588Z,10.93
2017-12-01T03:07:08.041Z,9.80
2017-12-01T03:09:39.692Z,11.30
2017-12-01T03:12:07.187Z,10.83
2017-12-01T03:14:35.156Z,9.82
2017-12-01T03:17:02.660Z,10.03
2017-12-01T03:19:30.118Z,10.33
2017-12-01T03:21:57.619Z,9.90
2017-12-01T03:24:25.131Z,12.73
2017-12-01T03:26:52.608Z,11.50
2017-12-01T03:29:20.123Z,11.47
2017-12-01T03:31:48.385Z,10.73
2017-12-01T03:34:15.833Z,10.37
2017-12-01T03:36:43.337Z,11.43
2017-12-01T03:39:10.812Z,11.05
2017-12-01T03:41:38.314Z,10.48
2017-12-01T03:44:05.977Z,10.80
2017-12-01T03:46:33.415Z,10.47
2017-12-01T03:49:02.602Z,10.30
2017-12-01T03:51:30.049Z,10.67
2017-12-01T03:53:57.516Z,10.53
2017-12-01T03:56:24.973Z,10.15
2017-12-01T03:58:52.440Z,11.40
2017-12-01T04:01:19.886Z,11.10
2017-12-01T04:03:47.386Z,10.67
2017-12-01T04:06:15.788Z,11.40
2017-12-01T04:08:43.281Z,12.20
2017-12-01T04:11:14.212Z,12.30
2017-12-01T04:13:41.706Z,11.60
2017-12-01T04:16:10.850Z,12.13
2017-12-01T04:18:38.332Z,11.10
2017-12-01T04:21:05.793Z,10.80
2017-12-01T04:23:33.301Z,12.07
2017-12-01T04:26:04.413Z,11.60
2017-12-01T04:28:32.672Z,10.70
2017-12-01T04:31:00.896Z,11.50
2017-12-01T04:33:28.345Z,11.90
2017-12-01T04:35:55.824Z,11.47
2017-12-01T04:38:23.312Z,13.02
2017-12-01T04:40:50.756Z,11.45
2017-12-01T04:43:19.149Z,11.38
2017-12-01T04:45:46.881Z,11.57
2017-12-01T04:48:14.371Z,12.30
2017-12-01T04:50:42.104Z,11.50
2017-12-01T04:53:09.597Z,10.27
2017-12-01T04:55:40.326Z,13.50
2017-12-01T04:58:08.972Z,11.82
2017-12-01T05:00:36.492Z,13.10
2017-12-01T05:03:03.948Z,12.43
2017-12-01T05:05:31.395Z,11.10
2017-12-01T05:07:58.884Z,11.93
2017-12-01T05:10:26.403Z,11.33
2017-12-01T05:12:55.032Z,12.20
2017-12-01T05:15:22.718Z,11.70
2017-12-01T05:17:50.501Z,12.23
2017-12-01T05:20:18.273Z,12.03
2017-12-01T05:22:47.222Z,12.25
2017-12-01T05:25:14.709Z,10.27
2017-12-01T05:27:42.181Z,11.73
2017-12-01T05:30:09.668Z,11.07
2017-12-01T05:32:37.122Z,11.83
2017-12-01T05:35:04.581Z,11.93
2017-12-01T05:37:32.053Z,11.53
2017-12-01T05:40:00.462Z,12.23
2017-12-01T05:42:31.228Z,12.47
2017-12-01T05:44:58.701Z,12.27
2017-12-01T05:47:26.144Z,11.57
2017-12-01T05:49:53.640Z,11.67
2017-12-01T05:52:21.144Z,13.87
2017-12-01T05:54:48.653Z,12.20
2017-12-01T05:57:16.830Z,12.13
2017-12-01T05:59:44.891Z,12.00
2017-12-01T06:02:12.622Z,12.27
2017-12-01T06:04:40.324Z,11.77
2017-12-01T06:07:08.708Z,12.30
2017-12-01T06:09:36.182Z,10.82
2017-12-01T06:12:03.731Z,12.73
2017-12-01T06:14:31.213Z,13.23
2017-12-01T06:16:59.520Z,12.55
2017-12-01T06:19:27.036Z,13.32
2017-12-01T06:21:54.505Z,12.37
2017-12-01T06:24:22.606Z,14.48
2017-12-01T06:26:50.349Z,12.87
2017-12-01T06:29:17.824Z,14.50
2017-12-01T06:31:45.321Z,13.20
2017-12-01T06:34:12.802Z,12.80
2017-12-01T06:36:40.293Z,13.60
2017-12-01T06:39:07.733Z,15.53
2017-12-01T06:41:36.109Z,13.77
2017-12-01T06:44:03.576Z,13.47
2017-12-01T06:46:31.133Z,13.03
2017-12-01T06:48:59.025Z,13.13
2017-12-01T06:51:26.488Z,13.80
2017-12-01T06:53:54.069Z,12.95
2017-12-01T06:56:21.544Z,12.80
2017-12-01T06:58:49.600Z,11.45
2017-12-01T07:01:17.088Z,12.73
2017-12-01T07:03:44.570Z,13.47
2017-12-01T07:06:12.020Z,13.10
2017-12-01T07:08:39.492Z,12.52
2017-12-01T07:11:06.965Z,14.10
2017-12-01T07:13:34.446Z,12.30
2017-12-01T07:16:01.965Z,11.65
2017-12-01T07:18:29.419Z,11.38
2017-12-01T07:20:58.667Z,13.30
2017-12-01T07:23:26.128Z,14.13
2017-12-01T07:25:53.620Z,11.93
2017-12-01T07:28:21.251Z,11.13
2017-12-01T07:30:48.788Z,12.80
2017-12-01T07:33:16.729Z,12.40
2017-12-01T07:35:44.940Z,14.23
2017-12-01T07:38:12.421Z,13.98
2017-12-01T07:40:40.826Z,12.90
2017-12-01T07:43:08.272Z,12.00
2017-12-01T07:45:38.240Z,13.32
2017-12-01T07:48:06.291Z,12.38
2017-12-01T07:50:34.261Z,13.07
2017-12-01T07:53:02.316Z,12.18
2017-12-01T07:55:29.767Z,15.03
2017-12-01T07:57:57.282Z,14.13
2017-12-01T08:00:26.429Z,14.80
2017-12-01T08:02:54.677Z,13.33
2017-12-01T08:05:22.137Z,14.48
2017-12-01T08:07:50.152Z,15.15
2017-12-01T08:10:17.649Z,13.62
2017-12-01T08:12:45.120Z,12.70
2017-12-01T08:15:12.596Z,13.40
2017-12-01T08:17:40.070Z,17.15
2017-12-01T08:20:07.554Z,14.23
2017-12-01T08:22:46.642Z,17.40
2017-12-01T08:25:32.706Z,16.42
2017-12-01T08:28:00.198Z,16.95
2017-12-01T08:30:32.884Z,16.90
2017-12-01T08:33:00.372Z,17.70
2017-12-01T08:35:27.876Z,17.85
2017-12-01T08:37:56.916Z,15.40
2017-12-01T08:40:24.356Z,16.65
2017-12-01T08:42:51.850Z,15.00
2017-12-01T08:45:27.203Z,18.40
2017-12-01T08:47:54.696Z,15.03
2017-12-01T08:50:22.140Z,17.00
2017-12-01T08:52:49.656Z,17.20
2017-12-01T08:55:17.105Z,19.13
2017-12-01T08:57:44.625Z,16.02
2017-12-01T09:00:12.085Z,18.85
2017-12-01T09:02:40.360Z,15.83
2017-12-01T09:05:08.878Z,15.77
2017-12-01T09:07:36.588Z,17.93
2017-12-01T09:10:04.063Z,16.02
2017-12-01T09:12:32.120Z,15.63
2017-12-01T09:15:02.871Z,17.00
2017-12-01T09:17:30.365Z,15.83
2017-12-01T09:19:57.828Z,17.43
2017-12-01T09:22:25.282Z,17.30
2017-12-01T09:24:53.178Z,16.10
2017-12-01T09:27:21.570Z,17.33
2017-12-01T09:29:49.032Z,15.38
2017-12-01T09:32:16.503Z,18.83
2017-12-01T09:34:43.964Z,18.83
2017-12-01T09:37:12.221Z,19.15
2017-12-01T09:39:39.678Z,19.58
2017-12-01T09:42:07.152Z,18.30
2017-12-01T09:44:35.757Z,17.25
2017-12-01T09:47:03.244Z,20.05
2017-12-01T09:49:30.708Z,19.30
2017-12-01T09:51:58.176Z,17.80
2017-12-01T09:54:25.676Z,15.80
2017-12-01T09:56:55.128Z,16.37
2017-12-01T09:59:22.582Z,17.70
2017-12-01T10:01:54.085Z,16.07
2017-12-01T10:04:21.586Z,17.50
2017-12-01T10:06:49.242Z,15.82
2017-12-01T10:09:16.715Z,16.03
2017-12-01T10:11:44.184Z,16.57
2017-12-01T10:14:11.636Z,16.55
2017-12-01T10:16:43.414Z,13.70
2017-12-01T10:19:11.175Z,15.77
2017-12-01T10:21:38.689Z,15.25
2017-12-01T10:24:06.235Z,14.93
2017-12-01T10:26:33.698Z,14.50
2017-12-01T10:29:01.922Z,14.68
2017-12-01T10:31:35.608Z,15.43
2017-12-01T10:34:03.508Z,14.05
2017-12-01T10:36:31.767Z,14.60
2017-12-01T10:38:59.240Z,17.90
2017-12-01T10:41:27.469Z,15.87
2017-12-01T10:43:54.933Z,15.00
2017-12-01T10:46:30.427Z,16.60
2017-12-01T10:48:57.965Z,14.15
2017-12-01T10:51:25.420Z,15.75
2017-12-01T10:53:53.437Z,15.52
2017-12-01T10:56:20.944Z,16.03
2017-12-01T10:58:48.504Z,14.90
2017-12-01T11:01:15.978Z,15.50
2017-12-01T11:03:43.432Z,15.32
2017-12-01T11:06:10.928Z,14.97
2017-12-01T11:08:38.428Z,15.93
2017-12-01T11:11:05.913Z,15.33
2017-12-01T11:13:33.875Z,18.55
2017-12-01T11:16:03.569Z,14.88
2017-12-01T11:18:32.722Z,14.57
2017-12-01T11:21:00.160Z,16.03
2017-12-01T11:23:27.668Z,17.13
2017-12-01T11:25:55.113Z,15.73
2017-12-01T11:28:23.520Z,16.70
2017-12-01T11:30:52.296Z,15.25
2017-12-01T11:33:19.752Z,15.73
2017-12-01T11:35:47.244Z,17.20
2017-12-01T11:38:16.374Z,17.23
2017-12-01T11:40:43.898Z,16.40
2017-12-01T11:43:11.339Z,18.48
2017-12-01T11:45:38.840Z,17.70
2017-12-01T11:48:10.269Z,17.50
2017-12-01T11:50:38.521Z,18.02
2017-12-01T11:53:05.971Z,16.60
2017-12-01T11:55:33.490Z,16.63
2017-12-01T11:58:01.003Z,20.15
2017-12-01T12:00:31.160Z,16.15
2017-12-01T12:03:01.829Z,19.00
2017-12-01T12:05:29.313Z,17.33
2017-12-01T12:07:56.772Z,17.67
2017-12-01T12:10:24.282Z,16.87
2017-12-01T12:12:51.751Z,17.00
2017-12-01T12:15:20.670Z,18.20
2017-12-01T12:17:48.120Z,17.20
2017-12-01T12:20:15.631Z,17.00
2017-12-01T12:22:43.088Z,17.87
2017-12-01T12:25:10.611Z,18.40
2017-12-01T12:27:38.795Z,18.92
2017-12-01T12:30:06.315Z,17.08
2017-12-01T12:32:34.247Z,15.13
2017-12-01T12:35:01.780Z,17.20
2017-12-01T12:37:29.311Z,15.97
2017-12-01T12:39:56.785Z,17.60
2017-12-01T12:42:24.348Z,15.93
2017-12-01T12:44:55.222Z,15.23
2017-12-01T12:47:23.728Z,20.33
2017-12-01T12:49:51.272Z,12.37
2017-12-01T12:52:18.767Z,13.17
2017-12-01T12:54:46.692Z,11.57
2017-12-01T12:57:14.964Z,12.67
2017-12-01T12:59:42.419Z,13.20
2017-12-01T13:02:09.905Z,12.40
2017-12-01T13:04:37.409Z,13.87
2017-12-01T13:07:04.838Z,14.00
2017-12-01T13:09:33.352Z,13.57
2017-12-01T13:12:01.984Z,12.55
2017-12-01T13:14:29.479Z,13.17
2017-12-01T13:16:56.996Z,12.63
2017-12-01T13:19:24.524Z,11.57
2017-12-01T13:21:51.964Z,11.50
2017-12-01T13:24:20.048Z,10.52
2017-12-01T13:26:47.527Z,11.63
2017-12-01T13:29:14.994Z,11.27
2017-12-01T13:31:42.494Z,10.17
2017-12-01T13:34:14.012Z,9.75
2017-12-01T13:36:41.553Z,11.00
2017-12-01T13:39:09.861Z,11.18
2017-12-01T13:41:37.304Z,9.60
2017-12-01T13:44:04.761Z,11.70
2017-12-01T13:46:32.362Z,13.27
2017-12-01T13:49:00.666Z,11.77
2017-12-01T13:51:29.485Z,12.90
2017-12-01T13:53:57.046Z,12.37
2017-12-01T13:56:24.526Z,12.60
2017-12-01T13:58:52.298Z,15.70
2017-12-01T14:01:19.975Z,14.45
2017-12-01T14:03:47.973Z,12.10
2017-12-01T14:06:15.493Z,14.27
2017-12-01T14:08:43.042Z,12.93
2017-12-01T14:11:10.817Z,13.60
2017-12-01T14:13:38.372Z,13.43
2017-12-01T14:16:07.513Z,15.83
2017-12-01T14:18:35.004Z,15.80
2017-12-01T14:21:02.467Z,14.43
2017-12-01T14:23:29.919Z,16.43
2017-12-01T14:25:57.404Z,15.15
2017-12-01T14:28:24.854Z,16.07
2017-12-01T14:30:52.327Z,12.93
2017-12-01T14:33:20.699Z,13.23
2017-12-01T14:35:48.189Z,16.90
2017-12-01T14:38:15.643Z,18.57
2017-12-01T14:40:43.155Z,17.63
2017-12-01T14:43:11.461Z,15.10
2017-12-01T14:45:40.035Z,33.28
2017-12-01T14:48:08.272Z,18.57
2017-12-01T14:50:35.730Z,15.98
2017-12-01T14:53:03.224Z,17.43
2017-12-01T14:55:31.474Z,15.80
2017-12-01T14:57:59.832Z,16.90
2017-12-01T15:00:27.325Z,17.75
2017-12-01T15:02:54.824Z,17.70
2017-12-01T15:05:22.348Z,20.57
2017-12-01T15:07:50.599Z,20.60
2017-12-01T15:10:18.561Z,22.30
2017-12-01T15:12:46.078Z,19.40
2017-12-01T15:15:14.357Z,20.62
2017-12-01T15:17:42.793Z,23.12
2017-12-01T15:20:10.224Z,22.90
2017-12-01T15:22:43.018Z,21.13
2017-12-01T15:25:10.504Z,20.85
2017-12-01T15:27:38.035Z,22.98
2017-12-01T15:30:05.440Z,19.57
2017-12-01T15:32:32.930Z,18.93
2017-12-01T15:35:00.555Z,22.02
2017-12-01T15:37:31.076Z,19.50
2017-12-01T15:39:58.564Z,20.60
2017-12-01T15:42:26.097Z,21.65
2017-12-01T15:44:53.572Z,23.50
2017-12-01T15:47:22.332Z,21.55
2017-12-01T15:49:50.540Z,23.45
2017-12-01T15:52:18.004Z,23.47
2017-12-01T15:54:46.448Z,20.77
2017-12-01T15:57:13.934Z,21.50
2017-12-01T15:59:41.397Z,21.33
2017-12-01T16:02:08.865Z,21.30
2017-12-01T16:04:36.353Z,21.10
2017-12-01T16:07:03.809Z,21.20
2017-12-01T16:09:31.284Z,20.07
2017-12-01T16:12:00.440Z,21.48
2017-12-01T16:14:27.916Z,19.03
2017-12-01T16:16:55.656Z,20.87
2017-12-01T16:19:23.158Z,20.70
2017-12-01T16:21:50.812Z,18.30
2017-12-01T16:24:19.981Z,16.65
2017-12-01T16:26:47.436Z,17.70
2017-12-01T16:29:14.888Z,17.37
2017-12-01T16:31:42.389Z,16.37
2017-12-01T16:34:10.628Z,18.33
2017-12-01T16:36:38.789Z,18.20
2017-12-01T16:39:06.238Z,17.43
2017-12-01T16:41:33.749Z,17.27
2017-12-01T16:44:02.011Z,19.30
2017-12-01T16:46:29.478Z,17.97
2017-12-01T16:48:57.567Z,18.37
2017-12-01T16:51:25.278Z,18.80
2017-12-01T16:53:52.789Z,18.95
2017-12-01T16:56:20.302Z,20.00
2017-12-01T16:58:48.208Z,21.67
2017-12-01T17:01:16.440Z,21.00
2017-12-01T17:03:43.897Z,19.10
2017-12-01T17:06:11.726Z,19.65
2017-12-01T17:08:42.408Z,21.63
2017-12-01T17:11:10.812Z,20.63
2017-12-01T17:13:39.600Z,19.90
2017-12-01T17:16:07.837Z,19.67
2017-12-01T17:18:35.597Z,20.10
2017-12-01T17:21:03.098Z,21.62
2017-12-01T17:23:31.039Z,20.90
2017-12-01T17:25:58.538Z,21.70
2017-12-01T17:28:26.051Z,18.27
2017-12-01T17:30:53.506Z,21.47
2017-12-01T17:33:21.666Z,19.35
2017-12-01T17:35:49.645Z,19.33
2017-12-01T17:38:17.089Z,19.50
2017-12-01T17:40:44.930Z,19.15
2017-12-01T17:43:15.277Z,17.70
2017-12-01T17:45:42.733Z,19.30
2017-12-01T17:48:10.181Z,18.02
2017-12-01T17:50:37.660Z,17.42
2017-12-01T17:53:05.116Z,17.17
2017-12-01T17:55:34.499Z,18.33
2017-12-01T17:58:02.181Z,15.60
2017-12-01T18:00:29.644Z,17.77
2017-12-01T18:02:57.184Z,18.10
2017-12-01T18:05:25.392Z,18.00
2017-12-01T18:07:53.925Z,18.80
2017-12-01T18:10:21.479Z,17.33
2017-12-01T18:12:48.976Z,16.53
2017-12-01T18:15:16.459Z,16.83
2017-12-01T18:17:43.922Z,17.20
2017-12-01T18:20:12.072Z,15.73
2017-12-01T18:22:39.546Z,16.62
2017-12-01T18:25:06.982Z,16.50
2017-12-01T18:27:34.508Z,18.63
2017-12-01T18:30:02.071Z,18.08
2017-12-01T18:32:29.564Z,20.30
2017-12-01T18:34:57.072Z,22.87
2017-12-01T18:37:25.145Z,19.00
2017-12-01T18:39:56.163Z,18.83
2017-12-01T18:42:23.712Z,19.12
2017-12-01T18:44:52.276Z,21.80
2017-12-01T18:47:19.721Z,22.40
2017-12-01T18:49:47.217Z,21.98
2017-12-01T18:52:15.510Z,22.40
2017-12-01T18:54:42.962Z,20.37
2017-12-01T18:57:13.587Z,23.57
2017-12-01T18:59:41.124Z,20.95
2017-12-01T19:02:08.576Z,24.63
2017-12-01T19:04:36.054Z,23.40
2017-12-01T19:07:05.205Z,23.65
2017-12-01T19:09:36.283Z,23.80
2017-12-01T19:12:04.528Z,22.80
2017-12-01T19:14:32.015Z,19.77
2017-12-01T19:17:00.784Z,20.83
2017-12-01T19:19:28.273Z,20.30
2017-12-01T19:21:55.730Z,23.40
2017-12-01T19:24:23.229Z,22.70
2017-12-01T19:26:50.705Z,21.87
2017-12-01T19:29:18.968Z,21.77
2017-12-01T19:31:46.424Z,22.40
2017-12-01T19:34:13.865Z,23.00
2017-12-01T19:36:41.635Z,18.60
2017-12-01T19:39:09.130Z,21.40
2017-12-01T19:41:36.661Z,20.10
2017-12-01T19:44:04.101Z,18.73
2017-12-01T19:46:31.654Z,19.67
2017-12-01T19:48:59.102Z,21.17
2017-12-01T19:51:27.516Z,20.07
2017-12-01T19:53:54.997Z,22.05
2017-12-01T19:56:23.012Z,23.77
2017-12-01T19:58:50.560Z,19.43
2017-12-01T20:01:18.860Z,19.77
2017-12-01T20:03:47.164Z,19.70
2017-12-01T20:06:17.048Z,20.07
2017-12-01T20:08:44.513Z,20.17
2017-12-01T20:11:16.604Z,21.80
2017-12-01T20:13:44.162Z,20.37
2017-12-01T20:16:17.445Z,19.80
2017-12-01T20:18:44.898Z,18.10
2017-12-01T20:21:12.436Z,18.57
2017-12-01T20:23:39.971Z,20.80
2017-12-01T20:26:07.424Z,21.00
2017-12-01T20:28:34.881Z,20.12
2017-12-01T20:31:02.520Z,18.33
2017-12-01T20:33:29.981Z,23.00
2017-12-01T20:35:58.248Z,18.83
2017-12-01T20:38:25.737Z,21.55
2017-12-01T20:40:53.220Z,20.83
2017-12-01T20:43:24.304Z,20.00
2017-12-01T20:45:51.753Z,21.50
2017-12-01T20:48:19.300Z,21.27
2017-12-01T20:50:46.839Z,22.65
2017-12-01T20:53:15.171Z,21.20
2017-12-01T20:55:42.666Z,22.40
2017-12-01T20:58:10.239Z,23.27
2017-12-01T21:00:37.685Z,22.92
2017-12-01T21:03:05.176Z,24.33
2017-12-01T21:05:32.786Z,23.60
2017-12-01T21:08:01.021Z,24.03
2017-12-01T21:10:28.515Z,22.88
2017-12-01T21:12:55.961Z,21.75
2017-12-01T21:15:24.192Z,20.80
2017-12-01T21:17:51.778Z,20.50
2017-12-01T21:20:19.252Z,20.30
2017-12-01T21:22:46.711Z,26.27
2017-12-01T21:25:14.235Z,22.50
2017-12-01T21:27:49.578Z,20.88
2017-12-01T21:30:17.059Z,20.67
2017-12-01T21:32:44.560Z,21.10
2017-12-01T21:35:12.997Z,18.60
2017-12-01T21:37:40.519Z,18.25
2017-12-01T21:40:08.054Z,21.33
2017-12-01T21:42:35.534Z,19.65
2017-12-01T21:45:02.992Z,19.50
2017-12-01T21:47:30.481Z,19.77
2017-12-01T21:49:57.941Z,20.20
2017-12-01T21:52:25.455Z,19.60
2017-12-01T21:54:52.909Z,21.35
2017-12-01T21:57:20.369Z,18.98
2017-12-01T21:59:48.061Z,22.20
2017-12-01T22:02:15.868Z,20.70
2017-12-01T22:04:43.370Z,20.83
2017-12-01T22:07:10.846Z,19.03
2017-12-01T22:09:38.315Z,20.55
2017-12-01T22:12:05.780Z,19.23
2017-12-01T22:14:34.957Z,20.00
2017-12-01T22:17:02.465Z,20.33
2017-12-01T22:19:29.951Z,21.20
2017-12-01T22:21:57.452Z,19.93
2017-12-01T22:24:25.684Z,20.50
2017-12-01T22:26:53.155Z,19.40
2017-12-01T22:29:22.116Z,20.45
2017-12-01T22:31:49.690Z,19.17
2017-12-01T22:34:17.185Z,18.13
2017-12-01T22:36:44.640Z,17.17
2017-12-01T22:39:13.791Z,17.65
2017-12-01T22:41:41.269Z,16.23
2017-12-01T22:44:11.917Z,20.10
2017-12-01T22:46:39.374Z,17.77
2017-12-01T22:49:06.833Z,18.00
2017-12-01T22:51:34.331Z,17.60
2017-12-01T22:54:02.756Z,17.57
2017-12-01T22:56:30.318Z,17.17
2017-12-01T22:58:57.773Z,17.50
2017-12-01T23:01:25.264Z,20.40
2017-12-01T23:03:52.719Z,16.87
2017-12-01T23:06:20.222Z,19.10
2017-12-01T23:08:47.780Z,19.20
2017-12-01T23:11:15.294Z,18.23
2017-12-01T23:13:46.523Z,22.00
2017-12-01T23:16:13.996Z,19.83
2017-12-01T23:18:41.492Z,18.60
2017-12-01T23:21:08.939Z,17.43
2017-12-01T23:23:36.416Z,16.43
2017-12-01T23:26:04.061Z,17.95
2017-12-01T23:28:31.576Z,19.27
2017-12-01T23:30:59.080Z,17.10
2017-12-01T23:33:26.525Z,18.50
2017-12-01T23:35:54.949Z,17.93
2017-12-01T23:38:22.526Z,18.30
2017-12-01T23:40:50.772Z,16.52
2017-12-01T23:43:18.246Z,17.73
2017-12-01T23:45:45.703Z,17.73
2017-12-01T23:48:14.580Z,16.50
2017-12-01T23:50:42.036Z,14.83
2017-12-01T23:53:09.537Z,14.50
2017-12-01T23:55:37.005Z,16.30
2017-12-01T23:58:04.739Z,17.70
